< < Back
Terminal Aerodrome Forecast


Current Version              Previous Versions:   1  2  3  4  5  6  7  8  9  

Terminal Aerodrome Forecast

834
FTUS44 KHUN 290530
TAFHSV
TAF
KHSV 290530Z 2906/3006 00000KT P6SM SCT250
     FM291600 19010KT P6SM SCT050
     FM300000 VRB03KT P6SM BKN120=

Latest METAR

873
SAUS80 KWBC 291600
MTRHSV
METAR KHSV 291553Z 16004KT 10SM FEW250 31/17 A3006 RMK AO2 SLP169
T03060172


USA.gov is the U.S. government's official web portal to all federal, state and local government web resources and services.